CheckWX is a tool to help pilots better visualize weather data.  It is not intended as a substitute for an official pre-flight weather briefing.

13:15:37 UTC

6A2 METAR
Griffin-Spalding County Airport
Griffin, Georgia, USA
Current

21 mins ago

K6A2 181255Z AUTO 31006KT 10SM SCT014 OVC047 08/07 A3009 RMK AO2
Observed
Feb-18 @ 12:55 UTC
Wind
  • 310° at 6 KTS
Visibility
10 SM
Flight Rules
VFR
Cloud Levels
  • Scattered at 1,400' AGL
  • Overcast at 4,700' AGL
Temperature
C / 46°F
Dewpoint
C / 45°F
Humidity
93%
Altimeter
30.09" Hg
Pressure
1018.92 hPa
Previous

41 mins ago

K6A2 181235Z AUTO 32007KT 10SM SCT014 OVC045 08/07 A3008 RMK AO2
Observed
Feb-18 @ 12:35 UTC
Wind
  • 320° at 7 KTS
Visibility
10 SM
Flight Rules
VFR
Cloud Levels
  • Scattered at 1,400' AGL
  • Overcast at 4,500' AGL
Temperature
C / 46°F
Dewpoint
C / 45°F
Humidity
93%
Altimeter
30.08" Hg
Pressure
1018.62 hPa
Previous

1 hour ago

K6A2 181215Z AUTO 32007KT 10SM OVC043 08/07 A3006 RMK AO2
Observed
Feb-18 @ 12:15 UTC
Wind
  • 320° at 7 KTS
Visibility
10 SM
Flight Rules
VFR
Cloud Levels
  • Overcast at 4,300' AGL
Temperature
C / 46°F
Dewpoint
C / 45°F
Humidity
93%
Altimeter
30.06" Hg
Pressure
1017.92 hPa